createdAt,value
2019-01-04T00:01:43.285Z,100885.45
2019-01-04T00:04:27.328Z,100884.19
2019-01-04T00:06:57.754Z,100884.59
2019-01-04T00:09:28.288Z,100876.94
2019-01-04T00:11:58.808Z,100882.74
2019-01-04T00:14:29.698Z,100888.52
2019-01-04T00:17:00.224Z,100884.59
2019-01-04T00:19:30.883Z,100887.66
2019-01-04T00:22:01.600Z,100888.78
2019-01-04T00:24:32.198Z,100893.70
2019-01-04T00:27:02.861Z,100893.50
2019-01-04T00:29:33.768Z,100893.84
2019-01-04T00:32:04.456Z,100902.70
2019-01-04T00:34:38.668Z,100898.22
2019-01-04T00:37:09.647Z,100904.03
2019-01-04T00:39:40.281Z,100916.73
2019-01-04T00:42:11.178Z,100918.34
2019-01-04T00:44:41.898Z,100917.46
2019-01-04T00:47:12.628Z,100923.92
2019-01-04T00:49:43.213Z,100922.52
2019-01-04T00:52:13.772Z,100919.27
2019-01-04T00:54:44.409Z,100929.39
2019-01-04T00:57:57.984Z,100925.11
2019-01-04T01:01:22.990Z,100927.50
2019-01-04T01:04:35.047Z,100926.31
2019-01-04T01:07:33.827Z,100926.58
2019-01-04T01:10:44.371Z,100928.39
2019-01-04T01:14:02.999Z,100921.44
2019-01-04T01:17:30.938Z,100920.38
2019-01-04T01:20:58.858Z,100929.09
2019-01-04T01:24:17.943Z,100927.82
2019-01-04T01:27:46.006Z,100925.29
2019-01-04T01:31:04.201Z,100919.70
2019-01-04T01:34:12.050Z,100920.97
2019-01-04T01:37:27.227Z,100931.87
2019-01-04T01:40:43.481Z,100931.22
2019-01-04T01:44:11.337Z,100929.46
2019-01-04T01:47:23.658Z,100932.39
2019-01-04T01:50:51.512Z,100921.55
2019-01-04T01:53:21.927Z,100916.08
2019-01-04T01:55:52.514Z,100915.99
2019-01-04T01:58:22.998Z,100912.11
2019-01-04T02:00:53.611Z,100909.14
2019-01-04T02:03:23.999Z,100909.86
2019-01-04T02:05:54.479Z,100909.27
2019-01-04T02:08:25.238Z,100910.15
2019-01-04T02:10:55.791Z,100916.55
2019-01-04T02:13:26.469Z,100915.10
2019-01-04T02:15:57.003Z,100916.37
2019-01-04T02:18:27.567Z,100911.83
2019-01-04T02:20:58.421Z,100907.31
2019-01-04T02:23:29.112Z,100906.97
2019-01-04T02:25:59.643Z,100909.70
2019-01-04T02:28:30.068Z,100906.05
2019-01-04T02:31:00.697Z,100902.19
2019-01-04T02:33:31.369Z,100902.63
2019-01-04T02:36:02.129Z,100897.56
2019-01-04T02:38:32.694Z,100897.56
2019-01-04T02:41:03.321Z,100900.64
2019-01-04T02:43:33.808Z,100900.09
2019-01-04T02:46:04.467Z,100891.58
2019-01-04T02:48:34.996Z,100899.38
2019-01-04T02:51:05.547Z,100895.58
2019-01-04T02:53:36.248Z,100894.22
2019-01-04T02:56:06.944Z,100883.02
2019-01-04T02:58:37.403Z,100882.30
2019-01-04T03:01:08.767Z,100879.91
2019-01-04T03:03:39.448Z,100878.50
2019-01-04T03:06:10.157Z,100883.95
2019-01-04T03:08:40.767Z,100882.45
2019-01-04T03:11:11.252Z,100889.16
2019-01-04T03:13:42.127Z,100893.70
2019-01-04T03:16:12.587Z,100882.45
2019-01-04T03:18:43.137Z,100888.58
2019-01-04T03:21:13.734Z,100895.34
2019-01-04T03:23:44.342Z,100894.08
2019-01-04T03:26:14.867Z,100890.48
2019-01-04T03:28:45.448Z,100894.81
2019-01-04T03:31:15.952Z,100889.89
2019-01-04T03:33:46.651Z,100886.30
2019-01-04T03:36:17.030Z,100890.48
2019-01-04T03:38:47.531Z,100893.16
2019-01-04T03:41:18.007Z,100887.22
2019-01-04T03:43:48.500Z,100887.95
2019-01-04T03:46:18.944Z,100874.02
2019-01-04T03:48:49.590Z,100881.47
2019-01-04T03:51:20.116Z,100879.28
2019-01-04T03:53:50.828Z,100874.56
2019-01-04T03:56:21.317Z,100879.23
2019-01-04T03:58:51.848Z,100877.81
2019-01-04T04:01:22.349Z,100872.70
2019-01-04T04:03:52.800Z,100873.39
2019-01-04T04:06:23.258Z,100866.86
2019-01-04T04:08:53.883Z,100870.26
2019-01-04T04:11:24.421Z,100863.73
2019-01-04T04:13:54.893Z,100863.73
2019-01-04T04:16:25.449Z,100853.70
2019-01-04T04:18:56.003Z,100845.70
2019-01-04T04:21:26.573Z,100844.44
2019-01-04T04:23:57.250Z,100841.33
2019-01-04T04:26:27.843Z,100843.03
2019-01-04T04:28:58.443Z,100842.30
2019-01-04T04:31:29.073Z,100835.62
2019-01-04T04:33:59.717Z,100838.47
2019-01-04T04:36:30.441Z,100845.68
2019-01-04T04:39:00.998Z,100841.26
2019-01-04T04:41:31.492Z,100849.28
2019-01-04T04:44:02.041Z,100850.48
2019-01-04T04:46:32.518Z,100852.51
2019-01-04T04:49:03.047Z,100841.65
2019-01-04T04:51:33.609Z,100845.78
2019-01-04T04:54:04.263Z,100832.06
2019-01-04T04:56:34.924Z,100829.88
2019-01-04T04:59:05.771Z,100828.94
2019-01-04T05:01:36.263Z,100832.21
2019-01-04T05:04:06.799Z,100828.15
2019-01-04T05:06:37.466Z,100822.38
2019-01-04T05:09:08.718Z,100818.83
2019-01-04T05:11:39.474Z,100813.91
2019-01-04T05:14:10.051Z,100812.13
2019-01-04T05:16:41.792Z,100814.32
2019-01-04T05:19:13.157Z,100809.98
2019-01-04T05:21:43.649Z,100818.03
2019-01-04T05:24:14.109Z,100812.84
2019-01-04T05:26:45.328Z,100815.38
2019-01-04T05:29:16.979Z,100817.59
2019-01-04T05:31:48.825Z,100812.67
2019-01-04T05:34:21.041Z,100815.57
2019-01-04T05:36:51.798Z,100819.70
2019-01-04T05:39:22.437Z,100811.20
2019-01-04T05:41:52.943Z,100811.84
2019-01-04T05:44:23.826Z,100815.05
2019-01-04T05:46:56.622Z,100802.02
2019-01-04T05:49:28.371Z,100808.59
2019-01-04T05:52:00.791Z,100810.72
2019-01-04T05:54:32.724Z,100811.20
2019-01-04T05:57:03.391Z,100814.24
2019-01-04T05:59:33.928Z,100811.72
2019-01-04T06:02:04.828Z,100817.86
2019-01-04T06:04:35.598Z,100824.82
2019-01-04T06:07:07.036Z,100823.69
2019-01-04T06:09:38.704Z,100834.41
2019-01-04T06:12:10.329Z,100824.94
2019-01-04T06:14:42.530Z,100824.22
2019-01-04T06:17:18.313Z,100826.41
2019-01-04T06:19:49.118Z,100825.55
2019-01-04T06:22:19.651Z,100829.59
2019-01-04T06:24:50.379Z,100823.08
2019-01-04T06:27:22.950Z,100818.22
2019-01-04T06:29:58.546Z,100816.27
2019-01-04T06:32:43.441Z,100816.09
2019-01-04T06:35:14.848Z,100809.77
2019-01-04T06:37:47.235Z,100811.44
2019-01-04T06:40:18.586Z,100813.90
2019-01-04T06:42:51.084Z,100812.23
2019-01-04T06:45:23.840Z,100818.35
2019-01-04T06:47:59.061Z,100815.31
2019-01-04T06:50:33.039Z,100816.63
2019-01-04T06:53:05.908Z,100812.70
2019-01-04T06:56:02.352Z,100812.87
2019-01-04T06:58:34.468Z,100808.48
2019-01-04T07:01:06.919Z,100805.67
2019-01-04T07:03:40.287Z,100808.06
2019-01-04T07:06:12.857Z,100813.31
2019-01-04T07:08:47.956Z,100810.84
2019-01-04T07:11:21.551Z,100815.44
2019-01-04T07:13:57.326Z,100815.38
2019-01-04T07:16:29.939Z,100806.56
2019-01-04T07:19:05.026Z,100812.98
2019-01-04T07:21:41.883Z,100803.82
2019-01-04T07:24:13.889Z,100804.69
2019-01-04T07:26:45.722Z,100801.23
2019-01-04T07:29:24.804Z,100801.96
2019-01-04T07:31:59.037Z,100799.63
2019-01-04T07:34:32.246Z,100794.37
2019-01-04T07:37:08.536Z,100792.98
2019-01-04T07:39:43.120Z,100800.23
2019-01-04T07:42:18.747Z,100806.27
2019-01-04T07:44:54.469Z,100809.14
2019-01-04T07:47:26.969Z,100803.64
2019-01-04T07:50:01.152Z,100807.16
2019-01-04T07:52:32.931Z,100805.80
2019-01-04T07:55:08.446Z,100808.78
2019-01-04T07:57:41.356Z,100807.08
2019-01-04T08:00:21.022Z,100808.83
2019-01-04T08:02:57.291Z,100806.44
2019-01-04T08:05:32.310Z,100802.63
2019-01-04T08:08:12.805Z,100799.16
2019-01-04T08:10:45.641Z,100811.62
2019-01-04T08:13:18.897Z,100805.73
2019-01-04T08:15:53.333Z,100793.19
2019-01-04T08:18:29.737Z,100796.52
2019-01-04T08:21:02.666Z,100791.11
2019-01-04T08:23:41.447Z,100793.00
2019-01-04T08:26:15.596Z,100789.34
2019-01-04T08:28:46.417Z,100786.62
2019-01-04T08:31:18.219Z,100771.79
2019-01-04T08:33:54.735Z,100773.34
2019-01-04T08:36:27.440Z,100769.98
2019-01-04T08:39:00.147Z,100768.12
2019-01-04T08:41:33.289Z,100758.73
2019-01-04T08:44:05.514Z,100749.59
2019-01-04T08:46:46.331Z,100753.95
2019-01-04T08:49:21.340Z,100748.35
2019-01-04T08:51:52.356Z,100748.78
2019-01-04T08:54:23.537Z,100749.72
2019-01-04T08:56:55.700Z,100748.66
2019-01-04T08:59:28.642Z,100747.58
2019-01-04T09:02:06.318Z,100742.98
2019-01-04T09:04:41.107Z,100741.00
2019-01-04T09:07:14.999Z,100738.06
2019-01-04T09:09:51.035Z,100736.88
2019-01-04T09:12:23.406Z,100732.52
2019-01-04T09:14:57.887Z,100728.87
2019-01-04T09:17:28.525Z,100719.80
2019-01-04T09:20:01.729Z,100718.49
2019-01-04T09:22:37.547Z,100724.67
2019-01-04T09:25:11.357Z,100719.80
2019-01-04T09:27:45.652Z,100710.92
2019-01-04T09:30:18.546Z,100713.30
2019-01-04T09:32:53.235Z,100703.34
2019-01-04T09:35:28.737Z,100700.44
2019-01-04T09:38:07.108Z,100691.72
2019-01-04T09:40:40.186Z,100688.81
2019-01-04T09:43:15.195Z,100681.07
2019-01-04T09:45:48.785Z,100667.80
2019-01-04T09:48:20.440Z,100664.49
2019-01-04T09:50:55.484Z,100660.13
2019-01-04T09:53:26.300Z,100656.14
2019-01-04T09:55:56.838Z,100652.37
2019-01-04T09:58:32.450Z,100630.39
2019-01-04T10:01:12.837Z,100633.65
2019-01-04T10:03:48.275Z,100624.05
2019-01-04T10:06:23.839Z,100621.48
2019-01-04T10:09:01.599Z,100608.97
2019-01-04T10:11:32.563Z,100605.14
2019-01-04T10:14:03.209Z,100603.33
2019-01-04T10:16:33.797Z,100594.62
2019-01-04T10:19:04.446Z,100591.73
2019-01-04T10:21:36.023Z,100579.75
2019-01-04T10:24:06.587Z,100572.16
2019-01-04T10:26:37.140Z,100565.86
2019-01-04T10:29:07.778Z,100558.98
2019-01-04T10:31:38.477Z,100557.19
2019-01-04T10:34:09.551Z,100545.02
2019-01-04T10:36:40.415Z,100536.88
2019-01-04T10:39:11.049Z,100530.15
2019-01-04T10:41:41.632Z,100531.79
2019-01-04T10:44:12.218Z,100520.92
2019-01-04T10:46:42.967Z,100520.58
2019-01-04T10:49:13.667Z,100513.16
2019-01-04T10:51:44.498Z,100501.73
2019-01-04T10:54:15.296Z,100502.81
2019-01-04T10:56:45.868Z,100490.64
2019-01-04T10:59:16.808Z,100487.75
2019-01-04T11:01:47.599Z,100477.41
2019-01-04T11:04:18.158Z,100481.23
2019-01-04T11:06:48.802Z,100473.22
2019-01-04T11:09:19.512Z,100465.06
2019-01-04T11:11:50.062Z,100461.27
2019-01-04T11:14:21.176Z,100455.45
2019-01-04T11:16:51.828Z,100439.34
2019-01-04T11:19:22.342Z,100431.16
2019-01-04T11:22:12.167Z,100416.28
2019-01-04T11:25:40.039Z,100415.39
2019-01-04T11:28:44.596Z,100411.77
2019-01-04T11:31:47.621Z,100396.14
2019-01-04T11:35:11.707Z,100395.78
2019-01-04T11:38:20.063Z,100383.27
2019-01-04T11:41:40.219Z,100374.20
2019-01-04T11:45:05.078Z,100371.66
2019-01-04T11:48:24.453Z,100364.95
2019-01-04T11:51:36.038Z,100351.52
2019-01-04T11:54:13.557Z,100349.15
2019-01-04T11:56:44.326Z,100340.47
2019-01-04T11:59:14.858Z,100336.09
2019-01-04T12:01:45.468Z,100330.08
2019-01-04T12:04:16.130Z,100327.54
2019-01-04T12:06:46.970Z,100325.00
2019-01-04T12:09:17.516Z,100318.30
2019-01-04T12:11:48.321Z,100316.33
2019-01-04T12:14:18.827Z,100304.33
2019-01-04T12:16:49.548Z,100302.55
2019-01-04T12:19:20.095Z,100282.22
2019-01-04T12:21:50.727Z,100296.89
2019-01-04T12:24:21.357Z,100291.47
2019-01-04T12:26:51.882Z,100276.03
2019-01-04T12:29:22.733Z,100282.05
2019-01-04T12:31:56.926Z,100280.55
2019-01-04T12:34:30.037Z,100277.81
2019-01-04T12:37:05.042Z,100270.52
2019-01-04T12:39:43.052Z,100266.37
2019-01-04T12:42:19.896Z,100267.80
2019-01-04T12:44:53.186Z,100262.53
2019-01-04T12:47:30.292Z,100252.94
2019-01-04T12:50:06.882Z,100254.70
2019-01-04T12:52:42.482Z,100251.42
2019-01-04T12:55:18.386Z,100248.84
2019-01-04T12:57:54.086Z,100246.12
2019-01-04T13:00:29.826Z,100235.94
2019-01-04T13:03:02.242Z,100239.23
2019-01-04T13:05:33.247Z,100227.95
2019-01-04T13:08:09.589Z,100233.04
2019-01-04T13:10:42.487Z,100230.13
2019-01-04T13:13:16.938Z,100229.17
2019-01-04T13:15:49.371Z,100216.80
2019-01-04T13:18:22.703Z,100224.42
2019-01-04T13:20:58.177Z,100216.60
2019-01-04T13:23:36.506Z,100209.29
2019-01-04T13:26:08.802Z,100206.75
2019-01-04T13:28:41.358Z,100208.59
2019-01-04T13:31:24.537Z,100208.00
2019-01-04T13:33:56.287Z,100205.95
2019-01-04T13:36:30.150Z,100198.30
2019-01-04T13:39:04.697Z,100198.11
2019-01-04T13:41:43.546Z,100191.94
2019-01-04T13:44:17.490Z,100190.09
2019-01-04T13:46:52.775Z,100183.35
2019-01-04T13:49:28.733Z,100181.14
2019-01-04T13:52:00.227Z,100175.36
2019-01-04T13:54:34.521Z,100169.88
2019-01-04T13:57:05.369Z,100175.44
2019-01-04T13:59:36.200Z,100173.80
2019-01-04T14:02:06.967Z,100167.80
2019-01-04T14:04:37.503Z,100167.41
2019-01-04T14:07:08.076Z,100169.80
2019-01-04T14:09:38.727Z,100163.80
2019-01-04T14:12:09.237Z,100162.33
2019-01-04T14:14:42.535Z,100163.60
2019-01-04T14:17:14.343Z,100165.59
2019-01-04T14:19:58.392Z,100160.34
2019-01-04T14:22:35.360Z,100166.34
2019-01-04T14:25:08.290Z,100156.53
2019-01-04T14:27:40.371Z,100157.96
2019-01-04T14:30:16.185Z,100156.10
2019-01-04T14:32:55.644Z,100145.73
2019-01-04T14:35:27.574Z,100150.42
2019-01-04T14:37:59.843Z,100140.28
2019-01-04T14:40:35.037Z,100138.23
2019-01-04T14:43:11.130Z,100128.44
2019-01-04T14:45:44.398Z,100124.78
2019-01-04T14:48:18.358Z,100114.77
2019-01-04T14:50:49.557Z,100118.20
2019-01-04T14:53:20.274Z,100105.83
2019-01-04T14:55:50.909Z,100099.47
2019-01-04T14:58:22.231Z,100099.11
2019-01-04T15:00:54.067Z,100092.19
2019-01-04T15:03:24.736Z,100089.97
2019-01-04T15:05:55.146Z,100084.84
2019-01-04T15:08:25.710Z,100089.77
2019-01-04T15:10:56.350Z,100080.83
2019-01-04T15:13:27.060Z,100079.55
2019-01-04T15:15:57.987Z,100073.91
2019-01-04T15:18:28.627Z,100072.99
2019-01-04T15:20:59.344Z,100072.23
2019-01-04T15:23:29.926Z,100066.59
2019-01-04T15:26:00.673Z,100065.91
2019-01-04T15:28:31.354Z,100068.06
2019-01-04T15:31:01.966Z,100062.30
2019-01-04T15:33:32.627Z,100060.58
2019-01-04T15:36:04.087Z,100061.70
2019-01-04T15:38:43.052Z,100060.74
2019-01-04T15:41:15.121Z,100057.84
2019-01-04T15:43:47.139Z,100067.06
2019-01-04T15:46:19.168Z,100063.25
2019-01-04T15:48:50.649Z,100060.94
2019-01-04T15:51:21.846Z,100055.77
2019-01-04T15:53:54.464Z,100052.34
2019-01-04T15:56:25.828Z,100044.51
2019-01-04T15:58:58.540Z,100041.41
2019-01-04T16:01:29.187Z,100043.95
2019-01-04T16:03:59.715Z,100034.09
2019-01-04T16:06:30.916Z,100025.73
2019-01-04T16:09:02.345Z,100029.35
2019-01-04T16:11:35.049Z,100021.16
2019-01-04T16:14:05.841Z,100019.89
2019-01-04T16:16:38.278Z,100022.59
2019-01-04T16:19:09.006Z,100016.42
2019-01-04T16:21:39.763Z,100012.05
2019-01-04T16:24:10.319Z,100008.23
2019-01-04T16:26:40.998Z,100006.23
2019-01-04T16:29:11.616Z,100006.59
2019-01-04T16:31:42.205Z,100001.14
2019-01-04T16:34:12.752Z,99998.41
2019-01-04T16:36:43.408Z,99994.38
2019-01-04T16:39:14.106Z,99997.13
2019-01-04T16:41:44.668Z,99991.68
2019-01-04T16:44:15.337Z,99991.84
2019-01-04T16:46:45.967Z,99995.61
2019-01-04T16:49:16.591Z,99988.73
2019-01-04T16:51:47.198Z,99981.30
2019-01-04T16:54:17.857Z,99992.91
2019-01-04T16:56:48.737Z,99990.20
2019-01-04T16:59:19.303Z,99992.00
2019-01-04T17:01:49.914Z,99977.99
2019-01-04T17:04:20.677Z,99974.12
2019-01-04T17:06:51.334Z,99978.66
2019-01-04T17:09:22.132Z,99982.67
2019-01-04T17:11:52.749Z,99983.54
2019-01-04T17:14:23.287Z,99980.28
2019-01-04T17:16:53.923Z,99979.92
2019-01-04T17:19:24.557Z,99981.20
2019-01-04T17:21:55.232Z,99977.17
2019-01-04T17:24:27.032Z,99977.38
2019-01-04T17:26:58.200Z,99979.36
2019-01-04T17:29:28.687Z,99986.40
2019-01-04T17:31:59.232Z,99979.17
2019-01-04T17:34:29.908Z,99975.91
2019-01-04T17:37:00.498Z,99979.92
2019-01-04T17:39:30.998Z,99966.28
2019-01-04T17:42:02.291Z,99976.63
2019-01-04T17:44:33.031Z,99973.09
2019-01-04T17:47:03.696Z,99962.00
2019-01-04T17:49:34.244Z,99967.14
2019-01-04T17:52:04.806Z,99955.33
2019-01-04T17:54:35.250Z,99958.70
2019-01-04T17:57:05.962Z,99950.23
2019-01-04T17:59:36.602Z,99948.00
2019-01-04T18:02:07.303Z,99944.59
2019-01-04T18:04:38.012Z,99946.72
2019-01-04T18:07:08.680Z,99944.70
2019-01-04T18:09:40.381Z,99945.24
2019-01-04T18:12:18.075Z,99938.12
2019-01-04T18:14:52.413Z,99936.84
2019-01-04T18:17:27.654Z,99931.75
2019-01-04T18:20:01.516Z,99924.87
2019-01-04T18:22:33.680Z,99924.92
2019-01-04T18:25:08.767Z,99924.53
2019-01-04T18:27:40.872Z,99914.73
2019-01-04T18:30:12.483Z,99916.89
2019-01-04T18:32:43.322Z,99912.41
2019-01-04T18:35:14.064Z,99910.52
2019-01-04T18:37:47.773Z,99917.65
2019-01-04T18:40:18.467Z,99921.77
2019-01-04T18:42:49.047Z,99919.98
2019-01-04T18:45:21.982Z,99917.75
2019-01-04T18:47:53.956Z,99913.56
2019-01-04T18:50:24.803Z,99919.33
2019-01-04T18:52:55.478Z,99916.73
2019-01-04T18:55:26.172Z,99908.05
2019-01-04T18:58:00.506Z,99914.03
2019-01-04T19:00:33.248Z,99910.97
2019-01-04T19:03:03.753Z,99897.88
2019-01-04T19:05:38.687Z,99909.28
2019-01-04T19:08:10.432Z,99913.09
2019-01-04T19:10:47.934Z,99906.73
2019-01-04T19:13:18.432Z,99918.91
2019-01-04T19:15:51.639Z,99925.43
2019-01-04T19:18:25.880Z,99922.68
2019-01-04T19:21:00.474Z,99913.70
2019-01-04T19:23:32.671Z,99919.41
2019-01-04T19:26:03.287Z,99915.84
2019-01-04T19:28:33.924Z,99908.92
2019-01-04T19:31:05.962Z,99908.77
2019-01-04T19:33:37.047Z,99908.10
2019-01-04T19:36:10.875Z,99914.77
2019-01-04T19:38:52.096Z,99907.13
2019-01-04T19:41:26.268Z,99916.72
2019-01-04T19:44:01.420Z,99912.22
2019-01-04T19:46:32.184Z,99910.74
2019-01-04T19:49:04.298Z,99908.31
2019-01-04T19:51:35.106Z,99908.25
2019-01-04T19:54:05.897Z,99908.82
2019-01-04T19:56:48.180Z,99903.47
2019-01-04T19:59:20.051Z,99897.09
2019-01-04T20:01:57.090Z,99899.12
2019-01-04T20:04:30.694Z,99903.47
2019-01-04T20:08:05.672Z,99895.52
2019-01-04T20:11:40.246Z,99888.55
2019-01-04T20:15:17.512Z,99884.27
2019-01-04T20:18:13.188Z,99882.84
2019-01-04T20:21:02.898Z,99869.41
2019-01-04T20:23:58.516Z,99866.80
2019-01-04T20:26:50.147Z,99869.04
2019-01-04T20:29:40.606Z,99867.62
2019-01-04T20:32:31.082Z,99863.25
2019-01-04T20:35:28.422Z,99867.83
2019-01-04T20:38:19.203Z,99861.73
2019-01-04T20:41:09.899Z,99863.76
2019-01-04T20:44:02.448Z,99857.80
2019-01-04T20:46:53.316Z,99863.30
2019-01-04T20:49:43.318Z,99859.27
2019-01-04T20:52:35.043Z,99858.09
2019-01-04T20:55:27.057Z,99854.06
2019-01-04T20:58:16.730Z,99848.25
2019-01-04T21:01:10.219Z,99842.09
2019-01-04T21:04:01.966Z,99850.64
2019-01-04T21:06:49.087Z,99851.37
2019-01-04T21:09:40.945Z,99847.18
2019-01-04T21:12:30.598Z,99841.81
2019-01-04T21:15:23.657Z,99837.45
2019-01-04T21:18:13.264Z,99835.27
2019-01-04T21:21:10.583Z,99826.20
2019-01-04T21:24:03.218Z,99825.84
2019-01-04T21:26:53.823Z,99828.17
2019-01-04T21:29:43.533Z,99814.52
2019-01-04T21:32:32.864Z,99811.70
2019-01-04T21:35:22.469Z,99808.86
2019-01-04T21:38:11.998Z,99813.55
2019-01-04T21:41:04.523Z,99811.28
2019-01-04T21:43:52.023Z,99813.06
2019-01-04T21:46:42.028Z,99805.78
2019-01-04T21:49:32.318Z,99800.17
2019-01-04T21:52:25.378Z,99807.81
2019-01-04T21:55:14.783Z,99798.60
2019-01-04T21:58:07.042Z,99797.63
2019-01-04T22:00:58.008Z,99809.67
2019-01-04T22:03:47.107Z,99807.81
2019-01-04T22:06:36.542Z,99796.14
2019-01-04T22:09:27.487Z,99791.70
2019-01-04T22:12:16.397Z,99783.63
2019-01-04T22:15:06.256Z,99798.33
2019-01-04T22:17:55.755Z,99798.08
2019-01-04T22:20:45.642Z,99797.34
2019-01-04T22:23:34.949Z,99791.83
2019-01-04T22:26:24.366Z,99781.30
2019-01-04T22:29:15.158Z,99776.54
2019-01-04T22:32:04.855Z,99778.91
2019-01-04T22:34:54.149Z,99768.13
2019-01-04T22:37:43.482Z,99763.34
2019-01-04T22:40:33.395Z,99757.51
2019-01-04T22:43:22.872Z,99747.31
2019-01-04T22:46:12.327Z,99752.92
2019-01-04T22:49:01.627Z,99746.19
2019-01-04T22:51:51.027Z,99748.52
2019-01-04T22:54:40.818Z,99749.03
2019-01-04T22:57:30.317Z,99748.34
2019-01-04T23:00:19.807Z,99750.31
2019-01-04T23:03:09.394Z,99736.30
2019-01-04T23:05:59.006Z,99741.90
2019-01-04T23:08:48.393Z,99725.41
2019-01-04T23:11:37.819Z,99728.94
2019-01-04T23:14:27.177Z,99715.69
2019-01-04T23:17:16.519Z,99706.70
2019-01-04T23:20:05.908Z,99703.53
2019-01-04T23:23:05.007Z,99695.16
2019-01-04T23:25:54.457Z,99692.61
2019-01-04T23:28:44.257Z,99685.48
2019-01-04T23:31:33.672Z,99689.16
2019-01-04T23:34:23.487Z,99688.17
2019-01-04T23:37:12.921Z,99688.45
2019-01-04T23:40:02.344Z,99688.86
2019-01-04T23:42:51.676Z,99685.11
2019-01-04T23:45:41.236Z,99686.31
2019-01-04T23:48:30.660Z,99684.71
2019-01-04T23:51:20.117Z,99687.80
2019-01-04T23:54:05.889Z,99679.39
2019-01-04T23:56:55.278Z,99677.06
2019-01-04T23:59:37.259Z,99683.44
